Time;durP1;ratioP1;P1;durP2;ratioP2;P2;SDS_P1;SDS_P2;PMS_P1;PMS_P2;Temp;Humidity;BMP_temperature;BMP_pressure;BME280_temperature;BME280_humidity;BME280_pressure;Samples;Min_cycle;Max_cycle;Signal;HPM_P1;HPM_P2
2022/03/30 00:00:18;;;;;;;26.95;12.32;;;;;;;-142.75;100.00;77487.72;5021142;28;20105;-68
2022/03/30 00:02:44;;;;;;;26.40;12.02;;;;;;;-142.75;100.00;77495.59;4993695;28;20030;-69
2022/03/30 00:05:09;;;;;;;27.90;11.02;;;;;;;-142.75;100.00;77493.63;4993527;28;20036;-68
2022/03/30 00:07:35;;;;;;;31.50;12.98;;;;;;;-142.75;100.00;77487.72;5011302;28;20483;-69
2022/03/30 00:10:04;;;;;;;28.00;11.15;;;;;;;-142.75;100.00;77487.72;5010904;28;20034;-68
2022/03/30 00:12:30;;;;;;;25.40;12.10;;;;;;;-142.75;100.00;77485.75;5029429;28;20029;-69
2022/03/30 00:14:55;;;;;;;28.55;12.32;;;;;;;-142.75;100.00;77487.72;5030640;28;20029;-69
2022/03/30 00:17:21;;;;;;;26.42;11.15;;;;;;;-142.75;100.00;77481.81;5030852;28;20030;-69
2022/03/30 00:19:46;;;;;;;20.80;11.68;;;;;;;-142.75;100.00;77489.69;5030477;28;20018;-69
2022/03/30 00:22:11;;;;;;;22.13;10.52;;;;;;;-142.75;100.00;77483.78;5030744;28;20083;-68
2022/03/30 00:24:38;;;;;;;25.52;12.02;;;;;;;-142.75;100.00;77485.75;5030722;28;20033;-68
2022/03/30 00:27:06;;;;;;;24.57;10.80;;;;;;;-142.75;100.00;77489.69;5013256;28;20391;-69
2022/03/30 00:29:31;;;;;;;26.70;11.23;;;;;;;-142.75;100.00;77491.66;5030210;28;20029;-69
2022/03/30 00:31:57;;;;;;;25.33;11.48;;;;;;;-142.75;100.00;77495.59;5030552;28;20029;-69
2022/03/30 00:34:22;;;;;;;26.63;10.87;;;;;;;-142.75;100.00;77491.66;5030577;28;20112;-69
2022/03/30 00:36:47;;;;;;;26.63;12.20;;;;;;;-142.75;100.00;77507.41;5030544;28;20276;-69
2022/03/30 00:39:12;;;;;;;26.67;12.23;;;;;;;-142.75;100.00;77507.41;5030393;28;20510;-68
2022/03/30 00:41:38;;;;;;;25.63;12.55;;;;;;;-142.75;100.00;77511.34;5012910;28;20264;-69
2022/03/30 00:44:12;;;;;;;24.55;11.45;;;;;;;-142.75;100.00;77511.34;5012707;28;20102;-69
2022/03/30 00:46:38;;;;;;;25.40;10.90;;;;;;;-142.75;100.00;77525.13;5030608;28;20041;-69
2022/03/30 00:49:04;;;;;;;25.40;11.65;;;;;;;-142.75;100.00;77511.34;5030242;28;20040;-68
2022/03/30 00:51:30;;;;;;;23.38;11.18;;;;;;;-142.75;100.00;77513.31;5030397;28;20392;-68
2022/03/30 00:53:55;;;;;;;21.58;10.88;;;;;;;-142.75;100.00;77511.34;5030369;28;20022;-69
2022/03/30 00:56:20;;;;;;;29.30;12.07;;;;;;;-142.75;100.00;77527.09;5030443;28;20152;-69
2022/03/30 00:58:46;;;;;;;22.67;11.40;;;;;;;-142.75;100.00;77519.22;5030002;28;20025;-69
2022/03/30 01:01:11;;;;;;;27.58;10.80;;;;;;;-142.75;100.00;77523.16;5014447;28;20037;-69
2022/03/30 01:03:37;;;;;;;28.02;11.55;;;;;;;-142.75;100.00;77519.22;5010547;28;20083;-68
2022/03/30 01:06:02;;;;;;;21.35;10.90;;;;;;;-142.75;100.00;77519.22;5010655;28;20026;-69
2022/03/30 01:08:28;;;;;;;23.48;11.70;;;;;;;-142.75;100.00;77511.34;5010321;28;20519;-69
2022/03/30 01:10:53;;;;;;;23.38;11.25;;;;;;;-142.75;100.00;77515.28;4992943;28;20049;-68
2022/03/30 01:13:19;;;;;;;19.83;10.10;;;;;;;-142.75;100.00;77511.34;5010605;28;20025;-68
2022/03/30 01:15:45;;;;;;;27.02;12.52;;;;;;;-142.75;100.00;77523.16;4992930;28;20116;-69
2022/03/30 01:18:10;;;;;;;24.60;10.73;;;;;;;-142.75;100.00;77511.34;5010313;28;20105;-67
2022/03/30 01:20:36;;;;;;;25.30;11.83;;;;;;;-142.75;100.00;77507.41;5010462;28;20121;-68
2022/03/30 01:23:02;;;;;;;25.25;11.25;;;;;;;-142.75;100.00;77519.22;4993370;28;20280;-69
2022/03/30 01:25:27;;;;;;;25.83;12.37;;;;;;;-142.75;100.00;77519.22;4996344;28;20080;-68
2022/03/30 01:27:53;;;;;;;19.15;9.77;;;;;;;-142.75;100.00;77523.16;5013954;28;20025;-68
2022/03/30 01:33:06;;;;;;;26.27;11.77;;;;;;;-142.75;100.00;77523.16;5034003;28;20036;-69
2022/03/30 01:35:32;;;;;;;26.20;11.73;;;;;;;-142.75;100.00;77531.03;5033575;28;20491;-69
2022/03/30 01:37:57;;;;;;;;;;;;;;;-142.75;100.00;77534.97;5033901;28;20025;-69
2022/03/30 01:40:22;;;;;;;28.00;10.83;;;;;;;-142.75;100.00;77548.75;5033586;28;20281;-69
2022/03/30 01:42:48;;;;;;;25.73;11.60;;;;;;;-142.75;100.00;77544.81;5033701;28;20031;-68
2022/03/30 01:45:15;;;;;;;22.05;10.25;;;;;;;-142.75;100.00;77558.59;5033432;28;20087;-69
2022/03/30 01:47:47;;;;;;;27.30;11.57;;;;;;;-142.75;100.00;77568.44;5033466;28;20028;-68
2022/03/30 01:50:13;;;;;;;25.07;12.23;;;;;;;-142.75;100.00;77584.19;5015538;28;20079;-69
2022/03/30 01:52:38;;;;;;;21.58;10.85;;;;;;;-142.75;100.00;77597.97;5015520;28;20033;-68
2022/03/30 01:55:04;;;;;;;27.95;10.90;;;;;;;-142.75;100.00;77601.91;5033301;28;20108;-69
2022/03/30 01:57:29;;;;;;;23.27;11.75;;;;;;;-142.75;100.00;77594.03;5033445;28;20034;-69
2022/03/30 01:59:54;;;;;;;25.07;11.70;;;;;;;-142.75;100.00;77613.72;5032949;28;20025;-69
2022/03/30 02:02:19;;;;;;;25.87;11.03;;;;;;;-142.75;100.00;77629.47;5033354;28;20268;-69
2022/03/30 02:04:45;;;;;;;26.83;12.27;;;;;;;-142.75;100.00;77613.72;5033006;28;20272;-69
2022/03/30 02:07:10;;;;;;;24.48;10.68;;;;;;;-142.75;100.00;77617.66;5033095;28;20064;-69
2022/03/30 02:09:37;;;;;;;19.75;10.95;;;;;;;-142.75;100.00;77629.47;5032640;28;20105;-69
2022/03/30 02:12:04;;;;;;;24.33;11.33;;;;;;;-142.75;100.00;77637.34;5015386;28;20037;-69
2022/03/30 02:14:30;;;;;;;29.80;11.50;;;;;;;-142.75;100.00;77655.06;5015150;28;20022;-69
2022/03/30 02:16:55;;;;;;;23.23;10.98;;;;;;;-142.75;100.00;77657.03;5015261;28;20372;-68
2022/03/30 02:19:21;;;;;;;27.17;11.98;;;;;;;-142.75;100.00;77660.97;5032614;28;20037;-68
2022/03/30 02:21:46;;;;;;;28.60;11.60;;;;;;;-142.75;100.00;77649.16;5032794;28;20053;-68
2022/03/30 02:24:11;;;;;;;27.63;11.35;;;;;;;-142.75;100.00;77649.16;5013610;28;20491;-68
2022/03/30 02:26:37;;;;;;;26.25;11.50;;;;;;;-142.75;100.00;77657.03;5032778;28;20017;-69
2022/03/30 02:29:02;;;;;;;21.80;10.38;;;;;;;-142.75;100.00;77664.91;5032526;28;20025;-69
2022/03/30 02:31:28;;;;;;;26.27;11.52;;;;;;;-142.75;100.00;77672.78;5032582;28;20021;-68
2022/03/30 02:33:53;;;;;;;30.05;10.85;;;;;;;-142.75;100.00;77678.69;5032641;28;20071;-68
2022/03/30 02:36:18;;;;;;;21.52;10.60;;;;;;;-142.75;100.00;77680.66;5014145;28;20029;-69
2022/03/30 02:38:44;;;;;;;25.43;10.83;;;;;;;-142.75;100.00;77680.66;5032345;28;20017;-68
2022/03/30 02:41:11;;;;;;;24.80;11.43;;;;;;;-142.75;100.00;77668.84;5014814;28;20406;-69
2022/03/30 02:43:37;;;;;;;29.87;11.07;;;;;;;-142.75;100.00;77672.78;5032396;28;20104;-69
2022/03/30 02:46:03;;;;;;;21.48;10.23;;;;;;;-142.75;100.00;77682.63;5032639;28;20407;-69
2022/03/30 02:48:29;;;;;;;24.40;11.65;;;;;;;-142.75;100.00;77676.72;5032105;28;20138;-69
2022/03/30 02:51:00;;;;;;;23.23;11.02;;;;;;;-142.75;100.00;77672.78;5032157;28;20491;-68
2022/03/30 02:53:25;;;;;;;26.63;11.57;;;;;;;-142.75;100.00;77672.78;5032249;28;20183;-69
2022/03/30 02:55:51;;;;;;;25.65;11.50;;;;;;;-142.75;100.00;77692.47;5013162;28;20109;-68
2022/03/30 02:58:19;;;;;;;23.17;11.18;;;;;;;-142.75;100.00;77688.53;5014194;28;20049;-69
2022/03/30 03:00:45;;;;;;;31.33;12.17;;;;;;;-142.75;100.00;77682.63;5032134;28;20395;-69
2022/03/30 03:03:10;;;;;;;;;;;;;;;-142.75;100.00;77668.84;5014949;28;20044;-68
2022/03/30 03:05:38;;;;;;;24.87;11.03;;;;;;;-142.75;100.00;77682.63;5031971;28;19913;-68
2022/03/30 03:08:07;;;;;;;22.00;10.03;;;;;;;-142.75;100.00;77684.59;5031715;28;20029;-68
2022/03/30 03:10:34;;;;;;;32.17;12.03;;;;;;;-142.75;100.00;77692.47;5008779;28;20724;-68
2022/03/30 03:13:03;;;;;;;27.00;10.93;;;;;;;-142.75;100.00;77704.28;4997117;28;20021;-68
2022/03/30 03:15:30;;;;;;;25.43;11.67;;;;;;;-142.75;100.00;77706.25;5012287;28;20029;-68
2022/03/30 03:17:55;;;;;;;26.07;11.80;;;;;;;-142.75;100.00;77706.25;5011736;28;20105;-68
2022/03/30 03:20:21;;;;;;;29.13;11.00;;;;;;;-142.75;100.00;77718.06;4994360;28;20049;-68
2022/03/30 03:22:46;;;;;;;21.05;10.63;;;;;;;-142.75;100.00;77731.88;5028278;28;20124;-68
2022/03/30 03:25:12;;;;;;;27.98;10.82;;;;;;;-142.75;100.00;77723.97;5029818;28;20037;-68
2022/03/30 03:27:38;;;;;;;28.52;10.85;;;;;;;-142.75;100.00;77733.84;5031751;28;20021;-68
2022/03/30 03:30:05;;;;;;;24.63;11.68;;;;;;;-142.75;100.00;77731.88;5031283;28;20376;-68
2022/03/30 03:32:30;;;;;;;26.30;11.33;;;;;;;-142.75;100.00;77735.81;5026381;28;20053;-68
2022/03/30 03:34:56;;;;;;;29.35;11.85;;;;;;;-142.75;100.00;77727.94;5028405;28;20395;-68
2022/03/30 03:37:21;;;;;;;23.92;11.25;;;;;;;-142.75;100.00;77720.03;5013867;28;20031;-69
2022/03/30 03:39:47;;;;;;;25.38;11.25;;;;;;;-142.75;100.00;77712.16;5045779;22;20053;-67
2022/03/30 03:42:13;;;;;;;23.80;10.55;;;;;;;-142.75;100.00;77710.19;5030184;28;20036;-66
2022/03/30 03:44:38;;;;;;;24.80;10.73;;;;;;;-142.75;100.00;77704.28;5013593;28;20087;-66
2022/03/30 03:47:05;;;;;;;26.35;11.77;;;;;;;-142.75;100.00;77704.28;5030454;28;20060;-66
2022/03/30 03:49:30;;;;;;;25.00;11.67;;;;;;;-142.75;100.00;77696.41;5012988;28;20065;-66
2022/03/30 03:51:56;;;;;;;29.00;12.13;;;;;;;-142.75;100.00;77708.22;5011521;28;20060;-66
2022/03/30 03:54:21;;;;;;;23.60;10.40;;;;;;;-142.75;100.00;77696.41;5011528;28;20022;-66
2022/03/30 03:56:47;;;;;;;26.60;11.35;;;;;;;-142.75;100.00;77692.47;5011298;28;20026;-66
2022/03/30 03:59:13;;;;;;;21.40;10.43;;;;;;;-142.75;100.00;77700.34;5011055;28;20395;-66
2022/03/30 04:01:38;;;;;;;24.42;11.60;;;;;;;-142.75;100.00;77696.41;5011344;28;20033;-66
2022/03/30 04:04:04;;;;;;;25.30;11.30;;;;;;;-142.75;100.00;77696.41;5011384;28;20025;-66
2022/03/30 04:06:30;;;;;;;18.98;9.73;;;;;;;-142.75;100.00;77694.44;4993219;28;20395;-66
2022/03/30 04:08:55;;;;;;;;;;;;;;;-142.75;100.00;77686.56;5011367;28;20101;-66
2022/03/30 04:11:20;;;;;;;19.63;10.20;;;;;;;-142.75;100.00;77682.63;5011088;28;20478;-67
2022/03/30 04:13:46;;;;;;;25.63;10.65;;;;;;;-142.75;100.00;77678.69;5011230;28;20562;-66
2022/03/30 04:16:11;;;;;;;25.67;11.15;;;;;;;-142.75;100.00;77678.69;5011205;28;20017;-66
2022/03/30 04:18:36;;;;;;;24.20;11.02;;;;;;;-142.75;100.00;77680.66;5010829;28;20472;-66
2022/03/30 04:21:01;;;;;;;26.40;11.80;;;;;;;-142.75;100.00;77674.75;5011117;28;20025;-66
2022/03/30 04:23:27;;;;;;;23.05;11.50;;;;;;;-142.75;100.00;77666.88;5011011;28;20026;-66
2022/03/30 04:25:52;;;;;;;25.30;11.40;;;;;;;-142.75;100.00;77676.72;5010983;28;20044;-66
2022/03/30 04:28:17;;;;;;;26.83;11.27;;;;;;;-142.75;100.00;77662.94;5010767;28;20037;-66
2022/03/30 04:30:44;;;;;;;24.30;10.90;;;;;;;-142.75;100.00;77655.06;4991809;28;20026;-67
2022/03/30 04:33:09;;;;;;;24.65;12.02;;;;;;;-142.75;100.00;77653.09;5011137;28;20022;-66
2022/03/30 04:35:35;;;;;;;24.80;11.93;;;;;;;-142.75;100.00;77657.03;5010876;28;20033;-66
2022/03/30 04:38:01;;;;;;;31.08;11.15;;;;;;;-142.75;100.00;77660.97;4992065;28;20173;-66
2022/03/30 04:40:28;;;;;;;26.30;11.48;;;;;;;-142.75;100.00;77660.97;5010737;28;20101;-66
2022/03/30 04:42:54;;;;;;;30.67;11.53;;;;;;;-142.75;100.00;77649.16;5010905;28;20462;-66
2022/03/30 04:45:20;;;;;;;22.73;11.40;;;;;;;-142.75;100.00;77653.09;4993128;28;20025;-66
2022/03/30 04:47:45;;;;;;;24.42;10.02;;;;;;;-142.75;100.00;77649.16;5010808;28;20496;-66
2022/03/30 04:50:11;;;;;;;25.83;10.63;;;;;;;-142.75;100.00;77649.16;5010406;28;20037;-66
2022/03/30 04:52:37;;;;;;;21.73;9.95;;;;;;;-142.75;100.00;77649.16;5010822;28;20028;-66
2022/03/30 04:55:04;;;;;;;20.73;9.47;;;;;;;-142.75;100.00;77657.03;4992837;28;20028;-66
2022/03/30 04:57:30;;;;;;;26.17;11.30;;;;;;;-142.75;100.00;77660.97;5010721;28;20041;-66
2022/03/30 04:59:55;;;;;;;25.30;10.48;;;;;;;-142.75;100.00;77660.97;5013263;28;20026;-66
2022/03/30 05:02:21;;;;;;;32.45;11.85;;;;;;;-142.75;100.00;77660.97;5014580;28;20172;-66
2022/03/30 05:04:46;;;;;;;32.42;12.32;;;;;;;-142.75;100.00;77653.09;5014639;28;20373;-66
2022/03/30 05:07:13;;;;;;;30.80;12.00;;;;;;;-142.75;100.00;77668.84;4995839;28;20113;-66
2022/03/30 05:09:38;;;;;;;28.27;10.80;;;;;;;-142.75;100.00;77672.78;5014053;28;20288;-66
2022/03/30 05:12:04;;;;;;;31.23;12.02;;;;;;;-142.75;100.00;77674.75;5014588;28;20436;-66
2022/03/30 05:14:29;;;;;;;22.60;10.43;;;;;;;-142.75;100.00;77688.53;5014394;28;20041;-66
2022/03/30 05:16:54;;;;;;;27.45;11.38;;;;;;;-142.75;100.00;77692.47;5024540;28;20048;-66
2022/03/30 05:19:20;;;;;;;21.33;10.98;;;;;;;-142.75;100.00;77690.50;5033668;28;20037;-66
2022/03/30 05:21:45;;;;;;;25.40;10.63;;;;;;;-142.75;100.00;77692.47;5034062;28;20025;-66
2022/03/30 05:24:10;;;;;;;27.60;11.27;;;;;;;-142.75;100.00;77700.34;5034032;28;20275;-66
2022/03/30 05:26:36;;;;;;;23.77;11.73;;;;;;;-142.75;100.00;77706.25;5033941;28;20538;-66
2022/03/30 05:29:02;;;;;;;27.20;11.68;;;;;;;-142.75;100.00;77712.16;5033605;28;20275;-66
2022/03/30 05:31:27;;;;;;;22.08;10.40;;;;;;;-142.75;100.00;77720.03;5033567;28;20033;-66
2022/03/30 05:33:53;;;;;;;23.35;10.95;;;;;;;-142.75;100.00;77720.03;5016590;28;20117;-66
2022/03/30 05:36:19;;;;;;;25.10;11.52;;;;;;;-142.75;100.00;77704.28;5033906;28;20033;-66
2022/03/30 05:38:45;;;;;;;21.10;10.32;;;;;;;-142.75;100.00;77716.09;5033186;28;20029;-66
2022/03/30 05:41:11;;;;;;;25.87;11.60;;;;;;;-142.75;100.00;77718.06;5033609;28;20025;-65
2022/03/30 05:43:36;;;;;;;27.45;12.43;;;;;;;-142.75;100.00;77712.16;5033564;28;20104;-66
2022/03/30 05:46:01;;;;;;;26.77;11.68;;;;;;;-142.75;100.00;77708.22;5033520;28;20028;-66
2022/03/30 05:48:27;;;;;;;25.52;12.07;;;;;;;-142.75;100.00;77708.22;5015358;28;20017;-66
2022/03/30 05:50:55;;;;;;;20.40;9.18;;;;;;;-142.75;100.00;77722.00;5015679;28;20080;-66
2022/03/30 05:53:20;;;;;;;19.40;10.13;;;;;;;-142.75;100.00;77731.88;5015685;28;20108;-66
2022/03/30 05:55:45;;;;;;;20.65;10.25;;;;;;;-142.75;100.00;77714.13;5033406;28;20122;-66
2022/03/30 05:58:12;;;;;;;24.00;10.60;;;;;;;-142.75;100.00;77700.34;5032947;28;20018;-66
2022/03/30 06:00:38;;;;;;;27.03;10.50;;;;;;;-142.75;100.00;77692.47;5033166;28;20514;-66
2022/03/30 06:03:03;;;;;;;23.02;11.18;;;;;;;-142.75;100.00;77692.47;5033245;28;20096;-66
2022/03/30 06:05:28;;;;;;;27.38;12.23;;;;;;;-142.75;100.00;77686.56;5033193;28;20467;-66
2022/03/30 06:07:57;;;;;;;23.85;11.35;;;;;;;-142.75;100.00;77672.78;5021932;28;20024;-66
2022/03/30 06:10:24;;;;;;;22.83;10.50;;;;;;;-142.75;100.00;77680.66;5032220;28;20025;-66
2022/03/30 06:12:50;;;;;;;19.30;9.80;;;;;;;-142.75;100.00;77666.88;5032901;28;20021;-64
2022/03/30 06:15:15;;;;;;;23.67;10.40;;;;;;;-142.75;100.00;77649.16;5032894;28;20029;-65
2022/03/30 06:17:41;;;;;;;20.48;10.40;;;;;;;-142.75;100.00;77629.47;5015218;28;20116;-66
2022/03/30 06:20:07;;;;;;;24.38;9.32;;;;;;;-142.75;100.00;77629.47;5032581;28;20039;-66
2022/03/30 06:22:32;;;;;;;;;;;;;;;-142.75;100.00;77597.97;5033356;28;20032;-66
2022/03/30 06:24:59;;;;;;;24.87;9.70;;;;;;;-142.75;100.00;77592.06;5032926;28;19917;-66
2022/03/30 06:27:24;;;;;;;29.23;11.63;;;;;;;-142.75;100.00;77594.03;5032771;28;20112;-65
2022/03/30 06:29:50;;;;;;;20.70;9.50;;;;;;;-142.75;100.00;77592.06;5032315;28;20112;-66
2022/03/30 06:32:15;;;;;;;25.77;9.50;;;;;;;-142.75;100.00;77574.34;5013829;28;20025;-66
2022/03/30 06:34:40;;;;;;;23.83;10.40;;;;;;;-142.75;100.00;77566.47;5031905;28;20056;-66
2022/03/30 06:37:06;;;;;;;20.57;10.37;;;;;;;-142.75;100.00;77550.72;5013937;28;20276;-65
2022/03/30 06:39:33;;;;;;;24.70;11.27;;;;;;;-142.75;100.00;77525.13;5031220;28;20294;-66
2022/03/30 06:41:59;;;;;;;24.57;10.70;;;;;;;-142.75;100.00;77515.28;5031646;28;20033;-66
2022/03/30 06:44:24;;;;;;;27.83;11.32;;;;;;;-142.75;100.00;77521.19;5013561;28;20022;-66
2022/03/30 06:46:50;;;;;;;24.08;10.50;;;;;;;-142.75;100.00;77495.59;5031585;28;20032;-66
2022/03/30 06:49:15;;;;;;;26.13;10.82;;;;;;;-142.75;100.00;77460.13;5013367;28;20025;-66
2022/03/30 06:51:41;;;;;;;24.52;10.32;;;;;;;-142.75;100.00;77420.75;5031577;28;20403;-65
2022/03/30 06:54:06;;;;;;;26.83;10.60;;;;;;;-142.75;100.00;77389.25;5031446;28;20021;-66
2022/03/30 06:56:32;;;;;;;21.92;9.30;;;;;;;-142.75;100.00;77349.88;5031419;28;20028;-65
2022/03/30 06:58:57;;;;;;;23.55;9.57;;;;;;;-142.75;100.00;77330.19;5030704;28;20018;-66
2022/03/30 07:01:23;;;;;;;20.92;9.52;;;;;;;-142.75;100.00;77336.09;5031368;28;20025;-65
2022/03/30 07:03:48;;;;;;;21.42;10.07;;;;;;;-142.75;100.00;77353.81;5031203;28;20033;-65
2022/03/30 07:06:13;;;;;;;19.10;9.18;;;;;;;-142.75;100.00;77371.53;5031402;28;20021;-65
2022/03/30 07:11:22;;;;;;;22.60;10.07;;;;;;;-142.75;100.00;77365.63;5031064;28;20423;-65
2022/03/30 07:13:49;;;;;;;21.77;9.85;;;;;;;-142.75;100.00;77373.50;5031088;28;20025;-65
2022/03/30 07:16:14;;;;;;;25.47;10.13;;;;;;;-142.75;100.00;77359.72;5030792;28;20029;-66
2022/03/30 07:18:39;;;;;;;26.48;9.68;;;;;;;-142.75;100.00;77326.25;5030662;28;20029;-66
2022/03/30 07:21:05;;;;;;;24.75;9.60;;;;;;;-142.75;100.00;77292.78;5030812;28;20032;-66
2022/03/30 07:23:30;;;;;;;25.50;9.88;;;;;;;-142.75;100.00;77257.34;5030898;28;20037;-67
2022/03/30 07:25:59;;;;;;;21.85;10.80;;;;;;;-142.75;100.00;77239.63;5030918;28;20030;-66
2022/03/30 07:28:24;;;;;;;24.27;11.07;;;;;;;-142.75;100.00;77188.44;5030631;28;20549;-66
2022/03/30 07:30:49;;;;;;;24.08;10.77;;;;;;;-142.75;100.00;77172.69;5030666;28;20014;-66
2022/03/30 07:33:16;;;;;;;24.85;10.75;;;;;;;-142.75;100.00;77145.13;5030584;28;20072;-66
2022/03/30 07:35:46;;;;;;;22.57;10.57;;;;;;;-142.75;100.00;77135.28;5030652;28;20025;-66
2022/03/30 07:38:12;;;;;;;23.83;10.03;;;;;;;-142.75;100.00;77119.53;5013221;28;20522;-66
2022/03/30 07:40:38;;;;;;;22.27;10.13;;;;;;;-142.75;100.00;77084.09;5031271;28;20376;-67
2022/03/30 07:43:03;;;;;;;23.67;10.38;;;;;;;-142.75;100.00;77074.25;5031379;28;20027;-67
2022/03/30 07:45:29;;;;;;;21.58;10.00;;;;;;;-142.75;100.00;77030.94;5031316;28;20029;-67
2022/03/30 07:47:54;;;;;;;23.00;9.57;;;;;;;-142.75;100.00;76973.84;5031026;28;20474;-65
2022/03/30 07:50:19;;;;;;;21.40;10.60;;;;;;;-142.75;100.00;76948.25;5031163;28;20491;-65
2022/03/30 07:52:46;;;;;;;28.23;10.40;;;;;;;-142.75;100.00;76904.94;5031229;28;20025;-66
2022/03/30 07:55:12;;;;;;;;;;;;;;;-142.75;100.00;76863.59;5031428;28;20037;-64
2022/03/30 07:57:39;;;;;;;20.90;8.60;;;;;;;-142.75;100.00;76839.97;5031109;28;19920;-66
2022/03/30 08:00:07;;;;;;;22.70;9.60;;;;;;;-142.75;100.00;76822.25;5030613;28;20036;-65
2022/03/30 08:02:34;;;;;;;23.95;9.43;;;;;;;-142.75;100.00;76830.13;5031302;28;20036;-66
2022/03/30 08:04:59;;;;;;;;;;;;;;;-142.75;100.00;76867.53;5031510;28;20025;-65
2022/03/30 08:07:26;;;;;;;17.92;7.53;;;;;;;-142.75;100.00;76869.50;5031204;28;19913;-66
2022/03/30 08:09:52;;;;;;;21.60;8.80;;;;;;;-142.75;100.00;76818.31;5030526;28;20021;-65
2022/03/30 08:12:19;;;;;;;;;;;;;;;-142.75;100.00;76806.50;5031693;28;20039;-65
2022/03/30 08:14:45;;;;;;;16.77;7.95;;;;;;;-142.75;100.00;76778.97;5030926;28;19995;-66
2022/03/30 08:17:11;;;;;;;18.90;8.50;;;;;;;-142.75;100.00;76798.66;5031547;28;20402;-65
2022/03/30 08:19:36;;;;;;;16.73;7.88;;;;;;;-142.75;100.00;76782.91;5030930;28;20021;-66
2022/03/30 08:24:47;;;;;;;15.48;7.65;;;;;;;-142.75;100.00;76725.81;5011894;28;20024;-66
2022/03/30 08:27:17;;;;;;;18.10;9.25;;;;;;;-142.75;100.00;76719.91;5020796;28;20423;-66
2022/03/30 08:29:44;;;;;;;20.83;9.73;;;;;;;-142.75;100.00;76684.47;5003911;28;20029;-65
2022/03/30 08:32:11;;;;;;;17.25;8.35;;;;;;;-142.75;100.00;76676.59;5030356;28;20487;-66
2022/03/30 08:34:36;;;;;;;21.02;9.20;;;;;;;-142.75;100.00;76692.34;5029621;28;20513;-65
2022/03/30 08:37:02;;;;;;;20.50;8.75;;;;;;;-142.75;100.00;76668.72;5030407;28;20025;-66
2022/03/30 08:39:27;;;;;;;17.48;8.30;;;;;;;-142.75;100.00;76629.34;5030230;28;20032;-66
2022/03/30 08:41:53;;;;;;;18.83;8.57;;;;;;;-142.75;100.00;76617.53;5013782;28;20121;-65
2022/03/30 08:44:19;;;;;;;16.42;8.15;;;;;;;-142.75;100.00;76609.66;5031253;28;20061;-66
2022/03/30 08:46:45;;;;;;;25.30;9.48;;;;;;;-142.75;100.00;76627.38;5031213;28;20025;-66
2022/03/30 08:49:11;;;;;;;;;;;;;;;-142.75;100.00;76668.72;5013505;28;20025;-66
2022/03/30 08:51:38;;;;;;;24.17;8.90;;;;;;;-142.75;100.00;76672.66;5026459;28;19924;-66
2022/03/30 08:54:05;;;;;;;20.38;8.88;;;;;;;-142.75;100.00;76715.97;5031199;28;20083;-66
2022/03/30 08:56:31;;;;;;;15.52;8.27;;;;;;;-142.75;100.00;76715.97;5031201;28;20029;-66
2022/03/30 08:59:04;;;;;;;;;;;;;;;-142.75;100.00;76727.78;5030830;28;20025;-66
2022/03/30 09:01:32;;;;;;;17.83;8.23;;;;;;;-142.75;100.00;76700.22;5030901;28;19913;-65
2022/03/30 09:04:04;;;;;;;20.25;8.40;;;;;;;-142.75;100.00;76737.63;5031386;28;20029;-66
2022/03/30 09:06:44;;;;;;;19.23;8.75;;;;;;;-142.75;100.00;76780.94;5030119;28;20590;-66
2022/03/30 09:09:10;;;;;;;16.45;7.93;;;;;;;-142.75;100.00;76755.34;5029518;28;20027;-65
2022/03/30 09:11:41;;;;;;;14.50;6.95;;;;;;;-142.75;100.00;76739.59;5030055;28;20033;-65
2022/03/30 09:14:09;;;;;;;16.67;9.10;;;;;;;-142.75;100.00;76743.53;5030269;28;20037;-65
2022/03/30 09:16:42;;;;;;;19.23;8.65;;;;;;;-142.75;100.00;76767.16;5030456;28;20071;-65
2022/03/30 09:19:09;;;;;;;16.83;8.60;;;;;;;-142.75;100.00;76755.34;5012216;28;20372;-65
2022/03/30 09:21:59;;;;;;;16.15;7.45;;;;;;;-142.75;100.00;76767.16;5012457;28;20009;-65
2022/03/30 09:24:30;;;;;;;16.35;7.18;;;;;;;-142.75;100.00;76721.88;5030229;28;20132;-65
2022/03/30 09:26:57;;;;;;;14.98;7.15;;;;;;;-142.75;100.00;76710.06;5030513;28;20032;-66
2022/03/30 09:29:26;;;;;;;17.63;7.10;;;;;;;-142.75;100.00;76682.50;5030018;28;20029;-66
2022/03/30 09:31:52;;;;;;;13.45;7.22;;;;;;;-142.75;100.00;76741.56;5030360;28;20029;-65
2022/03/30 09:34:19;;;;;;;;;;;;;;;-142.75;100.00;76757.31;5030552;28;20037;-67
2022/03/30 09:36:45;;;;;;;17.98;7.80;;;;;;;-142.75;100.00;76755.34;5029212;28;19916;-66
2022/03/30 09:39:48;;;;;;;18.88;8.13;;;;;;;-142.75;100.00;76672.66;5044632;22;20111;-68
2022/03/30 09:42:14;;;;;;;15.25;8.05;;;;;;;-142.75;100.00;76584.06;4948474;29;20027;-71
2022/03/30 09:44:51;;;;;;;12.35;6.63;;;;;;;-142.75;100.00;76611.63;4997731;28;20473;-68
2022/03/30 09:47:18;;;;;;;14.77;7.20;;;;;;;-142.75;100.00;76649.03;5013675;28;20080;-68
2022/03/30 09:49:47;;;;;;;14.88;7.22;;;;;;;-142.75;100.00;76656.91;5015991;28;20025;-68
2022/03/30 09:52:19;;;;;;;15.68;8.00;;;;;;;-142.75;100.00;76672.66;5031782;28;20056;-68
2022/03/30 09:54:49;;;;;;;18.85;7.95;;;;;;;-142.75;100.00;76694.31;5027547;28;20041;-69
2022/03/30 09:57:40;;;;;;;16.80;7.22;;;;;;;-142.75;100.00;76672.66;4996045;28;20064;-68
2022/03/30 10:00:16;;;;;;;16.23;7.10;;;;;;;-142.75;100.00;76690.38;5013899;28;20466;-68
2022/03/30 10:02:50;;;;;;;15.27;7.40;;;;;;;-142.75;100.00;76717.94;5015988;28;20398;-68
2022/03/30 10:05:18;;;;;;;17.85;8.05;;;;;;;-142.75;100.00;76686.44;5033232;28;20028;-68
2022/03/30 10:07:45;;;;;;;17.23;7.97;;;;;;;-142.75;100.00;76660.84;5033118;28;20029;-68
2022/03/30 10:10:12;;;;;;;14.70;7.50;;;;;;;-142.75;100.00;76601.78;5032836;28;20483;-68
2022/03/30 10:12:38;;;;;;;16.80;7.95;;;;;;;-142.75;100.00;76562.41;5033059;28;20093;-68
2022/03/30 10:15:04;;;;;;;;;;;;;;;-142.75;100.00;76593.91;5033593;28;20032;-69
2022/03/30 10:17:29;;;;;;;16.80;7.40;;;;;;;-142.75;100.00;76558.47;5015325;28;19967;-68
2022/03/30 10:19:58;;;;;;;14.77;7.63;;;;;;;-142.75;100.00;76491.56;5032873;28;20025;-68
2022/03/30 10:22:34;;;;;;;14.38;6.88;;;;;;;-142.75;100.00;76467.94;5033089;28;20021;-68
2022/03/30 10:25:18;;;;;;;14.85;7.93;;;;;;;-142.75;100.00;76471.88;5015527;28;20438;-69
2022/03/30 10:27:54;;;;;;;15.30;6.40;;;;;;;-142.75;100.00;76448.25;5015378;28;20115;-68
2022/03/30 10:30:31;;;;;;;15.20;6.28;;;;;;;-142.75;100.00;76487.63;5032790;28;20018;-68
2022/03/30 10:32:59;;;;;;;16.63;7.25;;;;;;;-142.75;100.00;76534.84;5033273;28;20037;-69
2022/03/30 10:35:39;;;;;;;14.85;7.03;;;;;;;-142.75;100.00;76546.66;5033093;28;20413;-69
2022/03/30 10:38:05;;;;;;;15.32;6.45;;;;;;;-142.75;100.00;76507.31;5032659;28;20040;-69
2022/03/30 10:40:30;;;;;;;15.32;6.13;;;;;;;-142.75;100.00;76479.75;5032609;28;20399;-68
2022/03/30 10:43:01;;;;;;;21.35;7.15;;;;;;;-142.75;100.00;76477.78;5032637;28;20033;-68
2022/03/30 10:45:34;;;;;;;15.35;7.57;;;;;;;-142.75;100.00;76444.31;5014939;28;20033;-68
2022/03/30 10:48:11;;;;;;;16.60;7.45;;;;;;;-142.75;100.00;76393.13;5014589;28;20022;-68
2022/03/30 10:50:41;;;;;;;15.10;6.00;;;;;;;-142.75;100.00;76322.28;5032478;28;20033;-68
2022/03/30 10:53:34;;;;;;;13.63;6.53;;;;;;;-142.75;100.00;76340.00;5032334;28;20112;-66
2022/03/30 10:56:14;;;;;;;9.98;5.88;;;;;;;-142.75;100.00;76330.16;5032247;28;20028;-68
2022/03/30 10:59:00;;;;;;;16.00;6.55;;;;;;;-142.75;100.00;76267.16;5028886;28;20034;-68
2022/03/30 11:01:33;;;;;;;11.40;5.97;;;;;;;-142.75;100.00;76284.88;4984722;28;20100;-69
2022/03/30 11:04:04;;;;;;;13.15;5.95;;;;;;;-142.75;100.00;76298.66;4994966;28;20052;-70
2022/03/30 11:06:31;;;;;;;13.45;6.57;;;;;;;-142.75;100.00;76367.53;5012422;28;20125;-69